Time;durP1;ratioP1;P1;durP2;ratioP2;P2;SDS_P1;SDS_P2;PMS_P1;PMS_P2;Temp;Humidity;BMP_temperature;BMP_pressure;BME280_temperature;BME280_humidity;BME280_pressure;Samples;Min_cycle;Max_cycle;Signal;HPM_P1;HPM_P2
2021/07/22 04:59:48;;;;;;;;;;;;;;;24.73;47.94;99936.66;1837003;77;20147;-70
2021/07/22 05:02:17;;;;;;;;;;;;;;;24.65;47.53;99944.72;1776842;80;20082;-69
2021/07/22 05:04:44;;;;;;;;;;;;;;;24.66;48.10;99936.55;1796231;80;21117;-68
2021/07/22 05:07:12;;;;;;;;;;;;;;;24.83;47.87;99938.05;1790247;78;20120;-76
2021/07/22 05:09:44;;;;;;;;;;;;;;;25.02;46.45;99939.92;1777009;78;20183;-72
2021/07/22 05:12:13;;;;;;;;;;;;;;;25.02;46.58;99946.08;1805556;78;20159;-73
2021/07/22 05:14:47;;;;;;;;;;;;;;;25.06;46.67;99946.54;1805145;78;20110;-76
2021/07/22 05:17:25;;;;;;;;;;;;;;;25.11;45.85;99937.00;1797906;78;21077;-72
2021/07/22 05:20:09;;;;;;;;;;;;;;;25.12;45.82;99935.98;1798410;78;20445;-71
2021/07/22 05:22:40;;;;;;;;;;;;;;;25.34;45.23;99942.23;1793002;78;20510;-71
2021/07/22 05:25:10;;;;;;;;;;;;;;;25.42;44.76;99943.48;1795970;78;20293;-71
2021/07/22 05:27:56;;;;;;;;;;;;;;;25.44;44.66;99946.80;1804710;78;20130;-72
2021/07/22 05:30:28;;;;;;;;;;;;;;;25.66;44.61;99940.22;1808337;78;21959;-73
2021/07/22 05:32:57;;;;;;;;;;;;;;;25.93;44.02;99937.39;1727166;79;20177;-70
2021/07/22 05:35:25;;;;;;;;;;;;;;;26.14;42.81;99944.08;1796043;78;20104;-71
2021/07/22 05:37:57;;;;;;;;;;;;;;;26.15;42.74;99946.56;1801405;78;20109;-74
2021/07/22 05:40:24;;;;;;;;;;;;;;;26.30;42.14;99941.19;1806236;78;20095;-70
2021/07/22 05:42:54;;;;;;;;;;;;;;;26.34;42.51;99947.83;1783782;80;21062;-71
2021/07/22 05:45:21;;;;;;;;;;;;;;;26.44;42.21;99944.82;1808144;78;20130;-75
2021/07/22 05:47:48;;;;;;;;;;;;;;;26.63;41.72;99940.19;1796033;78;20113;-77
2021/07/22 05:50:15;;;;;;;;;;;;;;;26.79;41.24;99942.56;1770152;78;20075;-73
2021/07/22 05:52:47;;;;;;;;;;;;;;;26.79;40.98;99945.23;1782782;78;20068;-71
2021/07/22 05:55:14;;;;;;;;;;;;;;;26.80;40.81;99934.04;1789385;78;21079;-70
2021/07/22 05:57:41;;;;;;;;;;;;;;;26.79;40.91;99948.45;1786803;78;20159;-72
2021/07/22 06:00:09;;;;;;;;;;;;;;;26.72;40.76;99939.04;1761359;79;20305;-72
2021/07/22 06:02:39;;;;;;;;;;;;;;;26.71;39.83;99948.58;1785074;79;20172;-83
2021/07/22 06:05:15;;;;;;;;;;;;;;;26.61;39.68;99942.22;1776283;79;20118;-76
2021/07/22 06:07:40;;;;;;;;;;;;;;;26.55;40.60;99947.81;1775483;79;21256;-73
2021/07/22 06:10:07;;;;;;;;;;;;;;;26.74;39.18;99954.87;1774295;79;20095;-71
2021/07/22 06:12:39;;;;;;;;;;;;;;;26.74;38.60;99950.36;1778371;79;20432;-75
2021/07/22 06:15:08;;;;;;;;;;;;;;;26.74;38.87;99953.54;1769420;79;20166;-75
2021/07/22 06:17:37;;;;;;;;;;;;;;;26.89;38.48;99954.27;1775866;79;20152;-74
2021/07/22 06:20:06;;;;;;;;;;;;;;;27.05;38.85;99950.01;1777139;80;21175;-79
2021/07/22 06:22:35;;;;;;;;;;;;;;;27.25;38.81;99955.47;1806279;79;20142;-74
2021/07/22 06:25:02;;;;;;;;;;;;;;;27.37;38.14;99955.25;1804439;79;20144;-72
2021/07/22 06:27:29;;;;;;;;;;;;;;;27.31;37.38;99949.86;1783974;79;20429;-76
2021/07/22 06:30:01;;;;;;;;;;;;;;;27.17;37.33;99958.33;1780337;79;20110;-74
2021/07/22 06:32:27;;;;;;;;;;;;;;;27.06;37.56;99962.35;1781083;79;21049;-73
2021/07/22 06:34:54;;;;;;;;;;;;;;;26.96;37.85;99955.17;1786122;79;20094;-77
2021/07/22 06:37:22;;;;;;;;;;;;;;;26.96;38.33;99961.86;1791986;78;20157;-77
2021/07/22 06:39:51;;;;;;;;;;;;;;;27.11;38.93;99958.59;1799632;78;20083;-75
2021/07/22 06:42:19;;;;;;;;;;;;;;;27.29;39.26;99959.41;1801908;78;20599;-73
2021/07/22 06:44:46;;;;;;;;;;;;;;;27.56;37.32;99963.08;1795101;78;21055;-74
2021/07/22 06:47:12;;;;;;;;;;;;;;;27.53;36.93;99958.95;1792219;79;20133;-73
2021/07/22 06:49:39;;;;;;;;;;;;;;;27.42;37.17;99960.84;1787766;79;20202;-74
2021/07/22 06:52:06;;;;;;;;;;;;;;;27.44;36.50;99970.00;1796059;78;20521;-72
2021/07/22 06:54:35;;;;;;;;;;;;;;;27.45;35.73;99966.31;1781380;79;20086;-72
2021/07/22 06:57:02;;;;;;;;;;;;;;;27.24;36.28;99957.32;1785768;79;20584;-70
2021/07/22 06:59:33;;;;;;;;;;;;;;;27.20;36.13;99966.75;1788537;79;20169;-72
2021/07/22 07:02:00;;;;;;;;;;;;;;;27.21;35.83;99963.06;1796143;78;20128;-72
2021/07/22 07:04:27;;;;;;;;;;;;;;;27.21;36.41;99961.72;1791205;79;20077;-74
2021/07/22 07:06:55;;;;;;;;;;;;;;;27.37;35.84;99979.31;1791561;78;20441;-74
2021/07/22 07:09:23;;;;;;;;;;;;;;;27.50;35.09;99971.38;1795395;79;21133;-71
2021/07/22 07:11:50;;;;;;;;;;;;;;;27.42;35.04;99968.86;1791167;79;20186;-71
2021/07/22 07:14:16;;;;;;;;;;;;;;;27.38;35.22;99964.92;1790850;79;20078;-71
2021/07/22 07:16:43;;;;;;;;;;;;;;;27.27;36.42;99969.47;1805179;79;20145;-71
2021/07/22 07:19:10;;;;;;;;;;;;;;;27.32;36.95;99964.37;1801458;79;20205;-70
2021/07/22 07:21:40;;;;;;;;;;;;;;;27.40;37.21;99964.73;1790874;79;21095;-70
2021/07/22 07:24:08;;;;;;;;;;;;;;;27.60;36.08;99967.02;1785813;79;20149;-71
2021/07/22 07:26:35;;;;;;;;;;;;;;;27.68;35.92;99966.86;1791499;78;20145;-68
2021/07/22 07:29:02;;;;;;;;;;;;;;;27.67;35.69;99961.20;1795340;79;20231;-68
2021/07/22 07:31:29;;;;;;;;;;;;;;;27.67;34.92;99965.20;1802135;78;20145;-68
2021/07/22 07:33:58;;;;;;;;;;;;;;;27.63;34.68;99969.81;1803869;79;21029;-69
2021/07/22 07:36:26;;;;;;;;;;;;;;;27.58;34.38;99969.58;1789304;79;20673;-67
2021/07/22 07:38:55;;;;;;;;;;;;;;;27.46;35.25;99971.97;1790960;79;20121;-68
2021/07/22 07:41:22;;;;;;;;;;;;;;;27.49;35.68;99961.70;1800652;79;20124;-74
2021/07/22 07:43:49;;;;;;;;;;;;;;;27.65;35.80;99957.89;1799104;78;20114;-67
2021/07/22 07:46:16;;;;;;;;;;;;;;;27.89;35.31;99969.44;1789950;79;21165;-68
2021/07/22 07:48:44;;;;;;;;;;;;;;;28.12;33.65;99962.41;1802199;79;20116;-70
2021/07/22 07:51:15;;;;;;;;;;;;;;;28.09;33.90;99969.49;1794405;78;20154;-68
2021/07/22 07:53:43;;;;;;;;;;;;;;;27.94;33.58;99976.88;1792349;79;20117;-70
2021/07/22 07:56:10;;;;;;;;;;;;;;;27.87;33.66;99972.00;1791407;80;20114;-68
2021/07/22 07:58:37;;;;;;;;;;;;;;;27.86;33.64;99970.34;1792360;79;21142;-66
2021/07/22 08:01:04;;;;;;;;;;;;;;;27.85;34.52;99974.05;1783469;79;20070;-68
2021/07/22 08:03:33;;;;;;;;;;;;;;;27.99;34.24;99971.72;1795148;79;20124;-69
2021/07/22 08:05:59;;;;;;;;;;;;;;;28.19;33.90;99970.45;1795115;79;20156;-73
2021/07/22 08:08:26;;;;;;;;;;;;;;;28.35;33.52;99966.62;1776429;78;20174;-83
2021/07/22 08:10:58;;;;;;;;;;;;;;;28.48;32.10;99961.27;1784095;79;21237;-72
2021/07/22 08:13:21;;;;;;;;;;;;;;;28.41;30.70;99963.94;1784453;79;20408;-78
2021/07/22 08:15:51;;;;;;;;;;;;;;;28.12;31.12;99974.96;1784071;79;20103;-80
2021/07/22 08:18:18;;;;;;;;;;;;;;;27.88;31.06;99961.61;1784882;79;20102;-78
2021/07/22 08:20:46;;;;;;;;;;;;;;;27.70;30.85;99962.14;1788034;78;20128;-75
2021/07/22 08:23:13;;;;;;;;;;;;;;;27.51;31.64;99967.69;1782385;79;21899;-76
2021/07/22 08:25:41;;;;;;;;;;;;;;;27.34;30.61;99963.66;1777567;80;20129;-70
2021/07/22 08:28:10;;;;;;;;;;;;;;;27.09;31.34;99971.33;1789513;78;20176;-74
2021/07/22 08:30:37;;;;;;;;;;;;;;;26.89;31.91;99972.97;1774060;78;20169;-75
2021/07/22 08:33:04;;;;;;;;;;;;;;;26.71;32.52;99960.09;1784111;78;20078;-77
2021/07/22 08:35:31;;;;;;;;;;;;;;;26.72;32.94;99955.06;1794598;79;21151;-76
2021/07/22 08:37:59;;;;;;;;;;;;;;;26.76;32.72;99954.17;1787891;79;20396;-80
2021/07/22 08:40:25;;;;;;;;;;;;;;;26.86;33.61;99963.48;1787688;79;20156;-75
2021/07/22 08:42:54;;;;;;;;;;;;;;;27.00;33.25;99963.63;1785206;79;20219;-80
2021/07/22 08:45:21;;;;;;;;;;;;;;;27.08;32.05;99964.83;1786292;79;20121;-78
2021/07/22 08:47:48;;;;;;;;;;;;;;;27.01;32.32;99962.11;1773595;79;21068;-77
2021/07/22 08:50:15;;;;;;;;;;;;;;;27.02;32.69;99954.91;1792195;79;20152;-77
2021/07/22 08:52:42;;;;;;;;;;;;;;;27.10;31.77;99963.62;1771798;79;20183;-83
2021/07/22 08:55:11;;;;;;;;;;;;;;;27.09;32.65;99967.31;1794775;79;20177;-75
2021/07/22 08:57:38;;;;;;;;;;;;;;;27.14;33.19;99958.71;1778002;79;20423;-77
2021/07/22 09:00:09;;;;;;;;;;;;;;;27.18;32.90;99964.81;1793781;78;20533;-75
2021/07/22 09:02:36;;;;;;;;;;;;;;;27.25;33.11;99956.81;1767120;80;20159;-79
2021/07/22 09:05:04;;;;;;;;;;;;;;;27.22;31.97;99971.91;1808096;78;20124;-70
2021/07/22 09:07:31;;;;;;;;;;;;;;;26.99;32.55;99965.98;1812126;78;20135;-75
2021/07/22 09:10:07;;;;;;;;;;;;;;;26.81;33.34;99967.75;1806777;78;20171;-70
2021/07/22 09:12:41;;;;;;;;;;;;;;;26.81;33.47;99963.75;1795896;80;20544;-77
2021/07/22 09:15:09;;;;;;;;;;;;;;;26.87;33.50;99973.67;1797097;78;20152;-77
2021/07/22 09:17:36;;;;;;;;;;;;;;;26.79;34.25;99968.48;1782987;80;20424;-79
2021/07/22 09:20:09;;;;;;;;;;;;;;;26.67;34.86;99972.69;1782767;79;20117;-79
2021/07/22 09:22:39;;;;;;;;;;;;;;;26.54;34.91;99978.72;1790120;78;20073;-77
2021/07/22 09:25:06;;;;;;;;;;;;;;;26.49;33.78;99975.28;1788228;80;21094;-77
2021/07/22 09:27:38;;;;;;;;;;;;;;;26.39;34.13;99968.63;1788721;78;20401;-78
2021/07/22 09:30:06;;;;;;;;;;;;;;;26.27;34.22;99966.92;1788054;80;20092;-76
2021/07/22 09:32:36;;;;;;;;;;;;;;;26.07;34.18;99976.03;1780382;78;20097;-76
2021/07/22 09:35:16;;;;;;;;;;;;;;;25.88;35.19;99978.80;1782046;78;20170;-81
2021/07/22 09:37:54;;;;;;;;;;;;;;;25.80;35.38;99970.89;1766312;80;22493;-74
2021/07/22 09:40:30;;;;;;;;;;;;;;;25.81;35.04;99980.55;1793180;78;20125;-75
2021/07/22 09:42:57;;;;;;;;;;;;;;;25.77;35.42;99981.92;1791949;80;20110;-78
2021/07/22 09:45:30;;;;;;;;;;;;;;;25.62;35.43;99974.40;1777596;78;20390;-75
2021/07/22 09:48:05;;;;;;;;;;;;;;;25.51;35.17;99975.71;1769869;80;20423;-78
2021/07/22 09:50:41;;;;;;;;;;;;;;;25.51;34.79;99976.22;1775310;78;21296;-75
2021/07/22 09:53:11;;;;;;;;;;;;;;;25.58;35.00;99971.30;1786930;80;20114;-77
2021/07/22 09:55:40;;;;;;;;;;;;;;;25.71;35.20;99963.99;1770883;80;20145;-75
2021/07/22 09:58:09;;;;;;;;;;;;;;;25.66;34.13;99977.05;1771504;80;20494;-77
2021/07/22 10:00:40;;;;;;;;;;;;;;;25.41;34.62;99975.15;1769675;80;20071;-70
2021/07/22 10:03:10;;;;;;;;;;;;;;;25.18;35.63;99969.08;1783122;80;21486;-69
2021/07/22 10:05:40;;;;;;;;;;;;;;;25.08;35.36;99972.50;1771186;80;20093;-70
2021/07/22 10:08:10;;;;;;;;;;;;;;;25.02;35.36;99963.39;1763993;80;20431;-71
2021/07/22 10:10:37;;;;;;;;;;;;;;;24.98;35.49;99971.92;1755234;79;20403;-71
2021/07/22 10:13:04;;;;;;;;;;;;;;;24.85;36.36;99973.82;1792250;78;20078;-72
2021/07/22 10:15:32;;;;;;;;;;;;;;;24.66;36.96;99966.34;1792075;79;21133;-73
2021/07/22 10:17:59;;;;;;;;;;;;;;;24.57;36.60;99969.56;1806327;79;20124;-72
2021/07/22 10:20:32;;;;;;;;;;;;;;;24.55;36.24;99972.41;1777950;79;20093;-70
2021/07/22 10:22:59;;;;;;;;;;;;;;;24.58;35.87;99981.37;1792503;78;20447;-71
2021/07/22 10:25:26;;;;;;;;;;;;;;;24.67;36.17;99968.00;1815645;78;20064;-69
2021/07/22 10:27:53;;;;;;;;;;;;;;;24.76;36.00;99973.09;1778400;78;21108;-71
2021/07/22 10:30:21;;;;;;;;;;;;;;;24.87;34.72;99969.97;1777168;78;20093;-72
2021/07/22 10:32:53;;;;;;;;;;;;;;;24.91;34.77;99973.11;1774735;78;20150;-70
2021/07/22 10:35:22;;;;;;;;;;;;;;;24.92;35.63;99976.92;1771971;79;20333;-69
2021/07/22 10:38:14;;;;;;;;;;;;;;;24.83;35.12;99960.69;1777275;79;20120;-69
2021/07/22 10:40:57;;;;;;;;;;;;;;;24.70;36.54;99968.47;1797772;79;20748;-70
2021/07/22 10:43:38;;;;;;;;;;;;;;;24.69;35.26;99972.14;1780742;79;20537;-70
2021/07/22 10:46:06;;;;;;;;;;;;;;;24.63;35.24;99971.52;1786353;79;20113;-70
2021/07/22 10:48:35;;;;;;;;;;;;;;;24.62;35.42;99983.17;1794115;79;20082;-70
2021/07/22 10:51:04;;;;;;;;;;;;;;;24.62;35.51;99973.86;1782390;79;20140;-70
2021/07/22 10:53:47;;;;;;;;;;;;;;;24.65;36.47;99972.17;1767072;79;21188;-69
2021/07/22 10:56:19;;;;;;;;;;;;;;;24.66;35.97;99975.16;1804076;79;20106;-72
2021/07/22 10:58:46;;;;;;;;;;;;;;;24.61;35.78;99977.52;1809905;79;20210;-71
2021/07/22 11:01:13;;;;;;;;;;;;;;;24.57;35.33;99974.89;1803100;78;20193;-73
2021/07/22 11:03:46;;;;;;;;;;;;;;;24.47;35.48;99971.13;1795650;78;20158;-71
2021/07/22 11:06:15;;;;;;;;;;;;;;;24.41;36.43;99969.16;1797007;78;21039;-71
2021/07/22 11:08:43;;;;;;;;;;;;;;;24.42;36.37;99969.99;1790099;78;20089;-71
2021/07/22 11:11:13;;;;;;;;;;;;;;;24.43;36.57;99976.47;1796947;78;20121;-68
2021/07/22 11:13:48;;;;;;;;;;;;;;;24.35;36.83;99978.39;1790913;78;20288;-73
2021/07/22 11:16:25;;;;;;;;;;;;;;;24.25;37.84;99982.59;1771700;80;20097;-73
2021/07/22 11:19:03;;;;;;;;;;;;;;;24.18;38.10;99971.78;1793806;80;21143;-74
2021/07/22 11:21:35;;;;;;;;;;;;;;;24.18;36.97;99970.96;1796512;78;20090;-71
2021/07/22 11:24:18;;;;;;;;;;;;;;;24.24;36.60;99971.59;1788491;78;20412;-75
2021/07/22 11:26:54;;;;;;;;;;;;;;;24.32;36.24;99968.09;1808083;78;20429;-73
2021/07/22 11:29:19;;;;;;;;;;;;;;;24.41;35.57;99971.00;1786120;80;20074;-76
2021/07/22 11:31:46;;;;;;;;;;;;;;;24.43;36.39;99963.67;1810280;78;21077;-74
2021/07/22 11:34:14;;;;;;;;;;;;;;;24.48;36.81;99968.78;1797037;78;20163;-73
2021/07/22 11:36:42;;;;;;;;;;;;;;;24.48;36.20;99967.45;1795527;78;20090;-73
2021/07/22 11:39:09;;;;;;;;;;;;;;;24.45;36.42;99972.30;1796364;78;20109;-75
2021/07/22 11:41:36;;;;;;;;;;;;;;;24.38;35.94;99971.37;1798459;78;20452;-72
2021/07/22 11:44:04;;;;;;;;;;;;;;;24.39;36.63;99973.84;1797148;78;21131;-74
2021/07/22 11:46:37;;;;;;;;;;;;;;;24.42;36.08;99968.66;1786427;80;20525;-75
2021/07/22 11:49:14;;;;;;;;;;;;;;;24.46;35.92;99970.80;1817417;78;20120;-79
2021/07/22 11:51:43;;;;;;;;;;;;;;;24.59;35.53;99959.56;1806075;78;20106;-74
2021/07/22 11:54:13;;;;;;;;;;;;;;;24.68;35.66;99968.33;1798048;78;20517;-80
2021/07/22 11:56:40;;;;;;;;;;;;;;;24.70;36.21;99970.31;1786934;78;20977;-77
2021/07/22 11:59:10;;;;;;;;;;;;;;;24.63;35.76;99966.70;1796303;78;20164;-79
2021/07/22 12:01:50;;;;;;;;;;;;;;;24.48;36.37;99966.12;1806351;78;20534;-73
2021/07/22 12:04:32;;;;;;;;;;;;;;;24.38;37.04;99968.72;1793268;80;20105;-76
2021/07/22 12:07:02;;;;;;;;;;;;;;;24.30;36.93;99966.11;1792384;80;20129;-75
2021/07/22 12:09:29;;;;;;;;;;;;;;;24.29;36.89;99967.94;1791481;79;21119;-75
2021/07/22 12:11:58;;;;;;;;;;;;;;;24.38;36.93;99960.73;1794810;79;20420;-77
2021/07/22 12:14:28;;;;;;;;;;;;;;;24.43;37.07;99968.98;1791481;79;20134;-78
2021/07/22 12:16:55;;;;;;;;;;;;;;;24.46;36.26;99969.97;1793197;80;20101;-74
2021/07/22 12:19:25;;;;;;;;;;;;;;;24.37;36.40;99969.72;1803231;78;20381;-78
2021/07/22 12:22:24;;;;;;;;;;;;;;;24.25;36.74;99970.63;1812221;78;21056;-81
2021/07/22 12:24:56;;;;;;;;;;;;;;;24.16;36.44;99964.98;1808950;78;20074;-76
2021/07/22 12:27:34;;;;;;;;;;;;;;;24.15;36.35;99962.83;1805735;78;20478;-76
2021/07/22 12:30:07;;;;;;;;;;;;;;;24.25;36.47;99959.47;1810251;78;20119;-76
2021/07/22 12:32:34;;;;;;;;;;;;;;;24.47;36.00;99958.31;1808912;78;20114;-79
2021/07/22 12:35:01;;;;;;;;;;;;;;;24.69;35.39;99954.83;1810535;78;21270;-80
2021/07/22 12:37:56;;;;;;;;;;;;;;;24.91;35.29;99961.95;1813101;78;20099;-79
2021/07/22 12:40:42;;;;;;;;;;;;;;;25.09;35.32;99955.50;1805900;78;20372;-75
2021/07/22 12:43:11;;;;;;;;;;;;;;;25.13;35.60;99957.63;1808507;78;20113;-75
2021/07/22 12:45:38;;;;;;;;;;;;;;;25.05;35.41;99963.03;1795078;78;20102;-72
2021/07/22 12:48:07;;;;;;;;;;;;;;;24.93;34.77;99961.27;1790452;78;21597;-74
2021/07/22 12:50:39;;;;;;;;;;;;;;;24.76;35.51;99961.10;1789692;79;20303;-78
2021/07/22 12:53:09;;;;;;;;;;;;;;;24.63;34.54;99957.38;1793964;78;20419;-79
2021/07/22 12:55:38;;;;;;;;;;;;;;;24.52;34.10;99959.45;1808188;78;20094;-83
2021/07/22 12:58:06;;;;;;;;;;;;;;;24.52;33.69;99961.28;1797710;78;20479;-80
2021/07/22 13:00:42;;;;;;;;;;;;;;;24.57;33.42;99956.25;1809015;78;21015;-79
2021/07/22 13:03:11;;;;;;;;;;;;;;;24.62;33.73;99949.89;1801262;79;20119;-83
2021/07/22 13:05:38;;;;;;;;;;;;;;;24.69;34.14;99944.69;1802444;79;20080;-78
2021/07/22 13:08:07;;;;;;;;;;;;;;;24.73;33.53;99952.64;1794557;79;20607;-80
2021/07/22 13:10:36;;;;;;;;;;;;;;;24.70;33.85;99949.00;1789219;79;20092;-78
2021/07/22 13:13:05;;;;;;;;;;;;;;;24.66;34.02;99955.69;1797579;78;21831;-79
2021/07/22 13:15:34;;;;;;;;;;;;;;;24.59;33.65;99951.08;1791487;79;20090;-75
2021/07/22 13:18:00;;;;;;;;;;;;;;;24.51;34.02;99956.95;1798861;79;20149;-77
2021/07/22 13:20:27;;;;;;;;;;;;;;;24.42;32.95;99953.52;1797739;78;21037;-75
2021/07/22 13:22:55;;;;;;;;;;;;;;;24.32;33.59;99951.62;1799507;78;20216;-78
2021/07/22 13:25:22;;;;;;;;;;;;;;;24.21;33.86;99951.48;1794160;78;21505;-76
2021/07/22 13:27:48;;;;;;;;;;;;;;;24.17;34.38;99946.69;1799176;78;20163;-73
2021/07/22 13:30:15;;;;;;;;;;;;;;;24.14;34.96;99949.20;1800590;78;20087;-75
2021/07/22 13:32:42;;;;;;;;;;;;;;;24.12;34.04;99949.04;1802416;78;20080;-75
2021/07/22 13:35:12;;;;;;;;;;;;;;;24.12;34.35;99943.22;1815810;78;20127;-74
2021/07/22 13:37:41;;;;;;;;;;;;;;;24.11;33.38;99951.38;1800605;78;21020;-79
2021/07/22 13:40:10;;;;;;;;;;;;;;;24.06;33.37;99947.08;1786303;80;20165;-81
2021/07/22 13:42:37;;;;;;;;;;;;;;;24.01;33.35;99942.27;1808867;79;20140;-79
2021/07/22 13:45:06;;;;;;;;;;;;;;;23.98;33.91;99953.30;1782362;79;20119;-81
2021/07/22 13:47:34;;;;;;;;;;;;;;;23.91;33.60;99946.51;1793411;78;20421;-80
2021/07/22 13:50:01;;;;;;;;;;;;;;;23.82;33.82;99950.20;1798090;78;21117;-78
2021/07/22 13:52:28;;;;;;;;;;;;;;;23.78;33.86;99946.73;1804468;78;20087;-82
2021/07/22 13:54:59;;;;;;;;;;;;;;;23.78;34.22;99949.39;1804744;78;20123;-78
2021/07/22 13:57:28;;;;;;;;;;;;;;;23.78;34.48;99948.89;1782052;78;20127;-77
2021/07/22 13:59:56;;;;;;;;;;;;;;;23.80;34.05;99948.72;1782088;79;20111;-84
2021/07/22 14:02:33;;;;;;;;;;;;;;;23.81;33.58;99953.86;1790607;79;21311;-78
